Time;durP1;ratioP1;P1;durP2;ratioP2;P2;SDS_P1;SDS_P2;PMS_P1;PMS_P2;Temp;Humidity;BMP_temperature;BMP_pressure;BME280_temperature;BME280_humidity;BME280_pressure;Samples;Min_cycle;Max_cycle;Signal;HPM_P1;HPM_P2
2021/04/19 00:00:57;;;;;;;33.75;18.50;;;6.00;99.90;;;;;;5073837;28;20036;-80
2021/04/19 00:03:23;;;;;;;39.58;18.73;;;6.00;99.90;;;;;;5074089;28;20379;-80
2021/04/19 00:05:49;;;;;;;36.42;18.88;;;5.90;99.90;;;;;;5071902;28;20021;-80
2021/04/19 00:08:15;;;;;;;37.83;19.80;;;6.00;99.90;;;;;;5072754;28;20104;-79
2021/04/19 00:10:41;;;;;;;36.72;18.65;;;5.90;99.90;;;;;;5073953;28;20029;-78
2021/04/19 00:13:07;;;;;;;34.40;18.38;;;5.90;99.90;;;;;;5072315;28;20111;-80
2021/04/19 00:15:33;;;;;;;41.50;20.60;;;5.90;99.90;;;;;;5072280;28;20116;-80
2021/04/19 00:17:59;;;;;;;41.28;20.65;;;6.00;99.90;;;;;;5073895;28;20021;-80
2021/04/19 00:20:25;;;;;;;41.33;21.17;;;5.90;99.90;;;;;;5072463;28;20043;-79
2021/04/19 00:22:51;;;;;;;36.28;19.60;;;5.80;99.90;;;;;;5072836;28;20103;-79
2021/04/19 00:25:17;;;;;;;38.72;21.23;;;5.70;99.90;;;;;;5072523;28;20028;-79
2021/04/19 00:27:43;;;;;;;39.33;20.83;;;5.60;99.90;;;;;;5073603;28;20024;-79
2021/04/19 00:30:10;;;;;;;40.97;19.98;;;5.60;99.90;;;;;;5071852;28;20024;-79
2021/04/19 00:32:36;;;;;;;36.97;19.00;;;5.60;99.90;;;;;;5073535;28;20461;-79
2021/04/19 00:35:04;;;;;;;38.40;19.50;;;5.50;99.90;;;;;;5072294;28;20017;-78
2021/04/19 00:37:29;;;;;;;43.30;19.08;;;5.40;99.90;;;;;;5072150;28;20024;-79
2021/04/19 00:39:55;;;;;;;34.33;17.70;;;5.40;99.90;;;;;;5073372;28;20040;-79
2021/04/19 00:42:21;;;;;;;35.97;20.40;;;5.40;99.90;;;;;;5073268;28;20028;-78
2021/04/19 00:44:47;;;;;;;40.30;20.73;;;5.30;99.90;;;;;;5072078;28;20028;-79
2021/04/19 00:47:13;;;;;;;47.50;24.48;;;5.30;99.90;;;;;;5072003;28;20016;-78
2021/04/19 00:49:40;;;;;;;49.15;25.10;;;5.20;99.90;;;;;;5071984;28;20516;-78
2021/04/19 00:52:07;;;;;;;36.50;19.08;;;5.20;99.90;;;;;;5071933;28;20025;-78
2021/04/19 00:54:35;;;;;;;32.13;18.50;;;5.10;99.90;;;;;;5071658;28;20020;-78
2021/04/19 00:57:00;;;;;;;34.90;18.63;;;5.00;99.90;;;;;;5071808;28;20036;-78
2021/04/19 00:59:26;;;;;;;41.30;19.00;;;4.90;99.90;;;;;;5073107;28;20028;-78
2021/04/19 01:01:52;;;;;;;40.15;19.58;;;4.90;99.90;;;;;;5071687;28;20055;-78
2021/04/19 01:04:18;;;;;;;39.45;21.25;;;4.90;99.90;;;;;;5073094;28;20070;-78
2021/04/19 01:06:44;;;;;;;38.80;18.55;;;4.90;99.90;;;;;;5073196;28;20017;-78
2021/04/19 01:09:10;;;;;;;39.13;19.80;;;5.10;99.90;;;;;;5071768;28;20043;-78
2021/04/19 01:11:35;;;;;;;39.00;20.17;;;5.20;99.90;;;;;;5072903;28;20398;-78
2021/04/19 01:14:01;;;;;;;42.58;20.27;;;5.30;99.90;;;;;;5071704;28;20032;-78
2021/04/19 01:16:27;;;;;;;40.42;21.73;;;5.30;99.90;;;;;;5071553;28;20024;-78
2021/04/19 01:18:53;;;;;;;41.85;20.25;;;5.40;99.90;;;;;;5072901;28;20021;-79
2021/04/19 01:21:18;;;;;;;36.78;20.33;;;5.40;99.90;;;;;;5070994;28;20540;-78
2021/04/19 01:23:44;;;;;;;46.13;20.88;;;5.50;99.90;;;;;;5071482;28;20020;-78
2021/04/19 01:26:10;;;;;;;46.70;20.45;;;5.50;99.90;;;;;;5071524;28;20016;-80
2021/04/19 01:28:35;;;;;;;39.88;19.80;;;5.50;99.90;;;;;;5072625;28;20035;-78
2021/04/19 01:31:01;;;;;;;40.88;19.88;;;5.50;99.90;;;;;;5071234;28;20023;-79
2021/04/19 01:33:27;;;;;;;42.03;20.45;;;5.50;99.90;;;;;;5071355;28;20024;-78
2021/04/19 01:35:53;;;;;;;36.33;19.33;;;5.50;99.90;;;;;;5071424;28;20027;-79
2021/04/19 01:38:22;;;;;;;34.92;18.77;;;5.50;99.90;;;;;;5071333;28;20102;-78
2021/04/19 01:40:49;;;;;;;37.15;19.05;;;5.50;99.90;;;;;;5071319;28;20029;-79
2021/04/19 01:43:16;;;;;;;45.88;20.77;;;5.50;99.90;;;;;;5075080;28;20035;-79
2021/04/19 01:45:43;;;;;;;40.17;18.95;;;5.60;99.90;;;;;;5076430;28;20035;-79
2021/04/19 01:48:09;;;;;;;38.13;19.17;;;5.60;99.90;;;;;;5076283;28;20025;-78
2021/04/19 01:50:34;;;;;;;40.40;20.45;;;5.50;99.90;;;;;;5075308;28;20395;-79
2021/04/19 01:53:01;;;;;;;50.90;25.40;;;5.60;99.90;;;;;;5073316;28;20119;-78
2021/04/19 01:55:29;;;;;;;41.22;21.60;;;5.50;99.90;;;;;;5075009;28;20782;-79
2021/04/19 01:58:02;;;;;;;46.53;23.55;;;5.50;99.90;;;;;;5075137;28;20923;-79
2021/04/19 02:00:29;;;;;;;52.65;22.63;;;5.50;99.90;;;;;;5076485;28;20375;-79
2021/04/19 02:03:07;;;;;;;47.38;22.58;;;5.50;99.90;;;;;;5076084;28;20021;-79
2021/04/19 02:05:48;;;;;;;44.38;21.48;;;5.50;99.90;;;;;;5074825;28;20517;-79
2021/04/19 02:08:45;;;;;;;40.00;18.60;;;5.50;99.90;;;;;;5075098;28;20482;-78
2021/04/19 02:11:22;;;;;;;42.90;21.63;;;5.60;99.90;;;;;;5076421;28;20016;-78
2021/04/19 02:14:00;;;;;;;41.20;20.92;;;5.70;99.90;;;;;;5074568;28;20032;-78
2021/04/19 02:16:44;;;;;;;43.78;21.73;;;5.70;99.90;;;;;;5074872;28;20082;-79
2021/04/19 02:19:43;;;;;;;43.58;21.95;;;5.80;99.90;;;;;;5076246;28;20470;-78
2021/04/19 02:22:15;;;;;;;41.22;21.17;;;5.80;99.90;;;;;;5074402;28;20040;-79
2021/04/19 02:24:47;;;;;;;40.88;20.70;;;5.80;99.90;;;;;;5076156;28;20531;-79
2021/04/19 02:27:43;;;;;;;42.30;20.63;;;5.80;99.90;;;;;;5074226;28;20048;-78
2021/04/19 02:30:11;;;;;;;40.70;21.38;;;5.90;99.90;;;;;;5073640;28;20490;-78
2021/04/19 02:32:43;;;;;;;43.03;23.17;;;5.80;99.90;;;;;;5074508;28;20017;-78
2021/04/19 02:35:12;;;;;;;43.10;20.63;;;5.80;99.90;;;;;;5075891;28;20077;-79
2021/04/19 02:37:39;;;;;;;43.50;21.38;;;5.90;99.90;;;;;;5074431;28;20052;-79
2021/04/19 02:40:08;;;;;;;46.22;21.52;;;5.90;99.90;;;;;;5075715;28;20478;-79
2021/04/19 02:42:39;;;;;;;46.05;21.55;;;5.90;99.90;;;;;;5075674;28;20138;-79
2021/04/19 02:45:07;;;;;;;40.38;21.63;;;6.00;99.90;;;;;;5075768;28;20066;-79
2021/04/19 02:47:34;;;;;;;43.42;21.23;;;6.00;99.90;;;;;;5074234;28;20024;-79
2021/04/19 02:50:04;;;;;;;42.22;19.83;;;6.00;99.90;;;;;;5075623;28;20478;-79
2021/04/19 02:52:30;;;;;;;46.03;22.27;;;5.90;99.90;;;;;;5074787;28;20032;-80
2021/04/19 02:54:57;;;;;;;57.40;24.73;;;5.80;99.90;;;;;;5075536;28;20082;-80
2021/04/19 02:57:34;;;;;;;73.65;30.45;;;5.80;99.90;;;;;;5075238;28;20017;-79
2021/04/19 03:00:00;;;;;;;71.40;29.00;;;5.70;99.90;;;;;;5074092;28;20439;-79
2021/04/19 03:02:30;;;;;;;56.90;24.17;;;5.60;99.90;;;;;;5074050;28;20425;-79
2021/04/19 03:04:56;;;;;;;152.80;61.38;;;5.60;99.90;;;;;;5073838;28;20027;-79
2021/04/19 03:07:28;;;;;;;161.35;69.63;;;5.50;99.90;;;;;;5073911;28;20390;-79
2021/04/19 03:09:58;;;;;;;97.07;43.88;;;5.50;99.90;;;;;;5074064;28;20016;-79
2021/04/19 03:12:29;;;;;;;54.75;25.05;;;5.40;99.90;;;;;;5075451;28;20017;-79
2021/04/19 03:15:00;;;;;;;44.13;22.85;;;5.40;99.90;;;;;;5075225;28;20032;-78
2021/04/19 03:17:27;;;;;;;78.85;34.22;;;5.40;99.90;;;;;;5073798;28;20023;-78
2021/04/19 03:20:07;;;;;;;254.65;68.07;;;5.30;99.90;;;;;;5074950;28;20020;-78
2021/04/19 03:22:36;;;;;;;201.13;57.67;;;5.20;99.90;;;;;;5074995;28;20023;-79
2021/04/19 03:25:06;;;;;;;288.13;109.55;;;5.00;99.90;;;;;;5073647;28;20119;-78
2021/04/19 03:27:33;;;;;;;230.35;93.43;;;5.00;99.90;;;;;;5074916;28;20528;-79
2021/04/19 03:30:00;;;;;;;575.47;251.50;;;5.00;99.90;;;;;;5073533;28;20020;-79
2021/04/19 03:32:31;;;;;;;436.02;166.20;;;4.90;99.90;;;;;;5074741;28;20020;-79
2021/04/19 03:34:59;;;;;;;217.63;91.20;;;4.90;99.90;;;;;;5073254;28;20116;-79
2021/04/19 03:37:28;;;;;;;173.43;70.43;;;4.80;99.90;;;;;;5074620;28;20020;-80
2021/04/19 03:39:59;;;;;;;64.22;31.17;;;4.80;99.90;;;;;;5074537;28;20025;-80
2021/04/19 03:42:26;;;;;;;58.75;28.48;;;4.80;99.90;;;;;;5073043;28;20382;-79
2021/04/19 03:44:53;;;;;;;66.47;29.35;;;4.80;99.90;;;;;;5073351;28;20083;-79
2021/04/19 03:47:21;;;;;;;127.00;40.58;;;4.80;99.90;;;;;;5073159;28;20052;-78
2021/04/19 03:49:53;;;;;;;517.28;205.57;;;4.80;99.90;;;;;;5073161;28;20027;-79
2021/04/19 03:52:24;;;;;;;273.30;102.57;;;4.80;99.90;;;;;;5074387;28;20604;-79
2021/04/19 03:54:52;;;;;;;149.50;55.83;;;4.80;99.90;;;;;;5073145;28;20024;-78
2021/04/19 03:57:22;;;;;;;172.98;63.70;;;4.80;99.90;;;;;;5074292;28;20548;-78
2021/04/19 03:59:53;;;;;;;276.05;96.35;;;4.80;99.90;;;;;;5073300;28;20035;-79
2021/04/19 04:02:21;;;;;;;390.50;131.23;;;4.80;99.90;;;;;;5072431;28;20064;-79
2021/04/19 04:04:49;;;;;;;336.77;111.65;;;4.80;99.90;;;;;;5072906;28;20017;-79
2021/04/19 04:07:16;;;;;;;187.82;62.60;;;4.80;99.90;;;;;;5072754;28;20120;-79
2021/04/19 04:09:43;;;;;;;147.80;52.42;;;4.90;99.90;;;;;;5072925;28;20029;-80
2021/04/19 04:12:10;;;;;;;110.85;41.33;;;4.90;99.90;;;;;;5074004;28;20032;-79
2021/04/19 04:14:47;;;;;;;128.18;48.55;;;4.90;99.90;;;;;;5069072;28;20065;-79
2021/04/19 04:17:14;;;;;;;137.18;51.50;;;4.90;99.90;;;;;;5072008;28;20020;-79
2021/04/19 04:19:40;;;;;;;122.93;45.10;;;4.90;99.90;;;;;;5067759;28;20492;-78
2021/04/19 04:22:07;;;;;;;108.38;39.85;;;4.90;99.90;;;;;;5057846;28;20029;-79
2021/04/19 04:24:34;;;;;;;112.55;41.92;;;5.00;99.90;;;;;;5053627;28;20029;-79
2021/04/19 04:27:00;;;;;;;127.70;49.28;;;5.00;99.90;;;;;;5052400;28;20029;-79
2021/04/19 04:29:26;;;;;;;158.15;59.70;;;5.00;99.90;;;;;;5053657;28;20121;-79
2021/04/19 04:31:51;;;;;;;190.38;70.82;;;5.00;99.90;;;;;;5052307;28;20059;-79
2021/04/19 04:34:17;;;;;;;152.38;64.28;;;5.00;99.90;;;;;;5070394;28;20524;-79
2021/04/19 04:36:43;;;;;;;119.30;48.20;;;5.00;99.90;;;;;;5059087;28;20029;-79
2021/04/19 04:39:08;;;;;;;88.63;40.47;;;5.00;99.90;;;;;;5052327;28;20017;-79
2021/04/19 04:41:34;;;;;;;78.75;35.92;;;5.10;99.90;;;;;;5052171;28;20103;-79
2021/04/19 04:44:03;;;;;;;100.60;42.08;;;5.10;99.90;;;;;;5052852;28;20067;-79
2021/04/19 04:47:33;;;;;;;98.13;41.65;;;5.10;99.90;;;;;;5053215;28;20475;-79
2021/04/19 04:50:06;;;;;;;88.20;38.00;;;5.20;99.90;;;;;;4948089;28;20085;-79
2021/04/19 04:53:00;;;;;;;71.43;31.33;;;5.20;99.90;;;;;;5053271;28;20036;-79
2021/04/19 04:55:29;;;;;;;60.58;30.35;;;5.20;99.90;;;;;;5047449;28;20057;-79
2021/04/19 04:57:54;;;;;;;60.05;29.15;;;5.20;99.90;;;;;;5051845;28;20064;-79
2021/04/19 05:00:22;;;;;;;69.10;31.10;;;5.20;99.90;;;;;;5053104;28;20075;-79
2021/04/19 05:02:50;;;;;;;69.88;32.50;;;5.20;99.90;;;;;;5053344;28;20049;-79
2021/04/19 05:05:16;;;;;;;92.57;44.72;;;5.30;99.90;;;;;;5052725;28;20401;-79
2021/04/19 05:07:43;;;;;;;161.60;75.35;;;5.30;99.90;;;;;;5071526;28;20025;-79
2021/04/19 05:10:09;;;;;;;152.70;67.25;;;5.30;99.90;;;;;;5069300;28;20054;-80
2021/04/19 05:12:38;;;;;;;131.85;57.42;;;5.20;99.90;;;;;;5060582;28;20029;-80
2021/04/19 05:15:10;;;;;;;91.85;41.83;;;5.20;99.90;;;;;;5052561;28;20143;-80
2021/04/19 05:17:36;;;;;;;81.78;36.33;;;5.30;99.90;;;;;;5068086;28;20036;-80
2021/04/19 05:20:06;;;;;;;64.90;32.03;;;5.30;99.90;;;;;;5071557;28;20050;-79
2021/04/19 05:22:32;;;;;;;70.75;33.60;;;5.30;99.90;;;;;;5071540;28;20457;-79
2021/04/19 05:24:58;;;;;;;72.55;34.72;;;5.30;99.90;;;;;;5072918;28;20096;-79
2021/04/19 05:27:24;;;;;;;87.22;45.33;;;5.30;99.90;;;;;;5072734;28;20397;-79
2021/04/19 05:29:50;;;;;;;94.13;51.65;;;5.30;99.90;;;;;;5072845;28;20063;-78
2021/04/19 05:32:18;;;;;;;103.75;52.17;;;5.30;99.90;;;;;;5070056;28;20028;-78
2021/04/19 05:34:44;;;;;;;127.45;56.60;;;5.30;99.90;;;;;;5071499;28;20539;-77
2021/04/19 05:37:11;;;;;;;197.18;74.55;;;5.20;99.90;;;;;;5071476;28;20028;-78
2021/04/19 05:39:37;;;;;;;208.75;78.22;;;5.20;99.90;;;;;;5072687;28;20025;-78
2021/04/19 05:42:04;;;;;;;259.92;95.00;;;5.30;99.90;;;;;;5071289;28;20025;-78
2021/04/19 05:44:31;;;;;;;242.15;88.13;;;5.30;99.90;;;;;;5072266;28;20446;-78
2021/04/19 05:46:57;;;;;;;137.95;60.15;;;5.30;99.90;;;;;;5061405;28;20025;-78
2021/04/19 05:49:23;;;;;;;224.10;89.30;;;5.30;99.90;;;;;;5061659;28;20055;-78
2021/04/19 05:51:50;;;;;;;238.68;93.20;;;5.30;99.90;;;;;;5061757;28;20406;-78
2021/04/19 05:54:17;;;;;;;203.80;88.10;;;5.30;99.90;;;;;;5061612;28;20036;-78
2021/04/19 05:57:09;;;;;;;111.93;50.72;;;5.30;99.90;;;;;;5062921;28;20056;-77
2021/04/19 05:59:37;;;;;;;87.95;44.03;;;5.30;99.90;;;;;;5057687;28;20033;-78
2021/04/19 06:02:07;;;;;;;116.25;66.45;;;5.20;99.90;;;;;;5059946;28;20051;-77
2021/04/19 06:04:54;;;;;;;130.18;66.03;;;5.20;99.90;;;;;;5056300;28;20023;-78
2021/04/19 06:07:29;;;;;;;85.55;43.25;;;5.20;99.90;;;;;;5051043;28;20025;-78
2021/04/19 06:10:14;;;;;;;81.60;40.20;;;5.20;99.90;;;;;;5062609;28;20028;-77
2021/04/19 06:12:46;;;;;;;81.95;40.97;;;5.10;99.90;;;;;;5062685;28;20447;-77
2021/04/19 06:15:14;;;;;;;117.27;56.23;;;5.20;99.90;;;;;;5061936;28;20021;-77
2021/04/19 06:17:45;;;;;;;77.32;39.50;;;5.10;99.90;;;;;;5059269;28;20256;-77
2021/04/19 06:20:14;;;;;;;70.15;31.13;;;5.00;99.90;;;;;;5061829;28;20489;-77
2021/04/19 06:22:40;;;;;;;59.53;29.48;;;5.00;99.90;;;;;;5062645;28;20023;-78
2021/04/19 06:25:08;;;;;;;66.97;32.58;;;4.90;99.90;;;;;;5059723;28;20078;-77
2021/04/19 06:27:34;;;;;;;69.85;34.17;;;4.90;99.90;;;;;;5060676;28;20031;-77
2021/04/19 06:30:15;;;;;;;153.85;63.13;;;4.90;99.90;;;;;;5065216;28;20024;-78
2021/04/19 06:32:42;;;;;;;119.10;54.58;;;4.90;99.90;;;;;;5066224;28;20150;-78
2021/04/19 06:35:09;;;;;;;92.43;44.58;;;4.90;99.90;;;;;;5064909;28;20032;-78
2021/04/19 06:37:34;;;;;;;83.55;43.38;;;5.00;99.90;;;;;;5064892;28;20032;-78
2021/04/19 06:40:00;;;;;;;78.95;37.88;;;5.00;99.90;;;;;;5066290;28;20481;-78
2021/04/19 06:42:27;;;;;;;82.07;38.22;;;5.00;99.90;;;;;;5061279;28;20029;-78
2021/04/19 06:44:54;;;;;;;91.13;46.22;;;5.10;99.90;;;;;;5062455;28;20387;-78
2021/04/19 06:47:20;;;;;;;85.97;38.85;;;5.20;99.90;;;;;;5054321;28;20029;-80
2021/04/19 06:49:48;;;;;;;88.32;44.20;;;5.20;99.90;;;;;;5055543;28;20028;-80
2021/04/19 06:52:15;;;;;;;86.00;41.30;;;5.20;99.90;;;;;;5055567;28;20025;-80
2021/04/19 06:54:41;;;;;;;87.22;41.60;;;5.30;99.90;;;;;;5054222;28;20033;-81
2021/04/19 06:57:09;;;;;;;99.03;46.17;;;5.30;99.90;;;;;;5055358;28;20567;-81
2021/04/19 06:59:42;;;;;;;92.43;45.90;;;5.30;99.90;;;;;;5055831;28;20103;-81
2021/04/19 07:02:13;;;;;;;;;;;5.40;99.90;;;;;;5054814;28;20032;-79
2021/04/19 07:04:39;;;;;;;121.40;60.58;;;5.40;99.90;;;;;;5054395;28;19909;-81
2021/04/19 07:07:05;;;;;;;91.55;48.22;;;5.50;99.90;;;;;;5055278;28;20083;-80
2021/04/19 07:09:36;;;;;;;79.55;39.88;;;5.60;99.90;;;;;;5053871;28;20478;-81
2021/04/19 07:12:17;;;;;;;90.32;43.53;;;5.60;99.90;;;;;;5053904;28;20032;-81
2021/04/19 07:14:47;;;;;;;90.28;49.20;;;5.60;99.90;;;;;;5055217;28;20029;-80
2021/04/19 07:17:13;;;;;;;87.93;46.03;;;5.70;99.90;;;;;;5054332;28;20017;-80
2021/04/19 07:19:39;;;;;;;86.70;43.05;;;5.80;99.90;;;;;;5053525;28;20072;-80
2021/04/19 07:22:05;;;;;;;83.30;39.13;;;5.80;99.90;;;;;;5060146;28;20421;-81
2021/04/19 07:24:33;;;;;;;184.70;80.43;;;5.90;99.90;;;;;;5053618;28;20466;-81
2021/04/19 07:27:02;;;;;;;214.40;92.10;;;5.80;99.90;;;;;;5054836;28;20052;-80
2021/04/19 07:29:27;;;;;;;214.82;92.90;;;5.90;99.90;;;;;;5053568;28;20019;-80
2021/04/19 07:31:55;;;;;;;132.32;65.00;;;5.90;99.90;;;;;;5059722;28;20103;-79
2021/04/19 07:34:24;;;;;;;127.07;60.03;;;5.90;99.90;;;;;;5063531;28;20115;-79
2021/04/19 07:36:57;;;;;;;113.50;57.08;;;5.90;99.90;;;;;;5054793;28;20028;-80
2021/04/19 07:39:24;;;;;;;98.10;47.40;;;6.00;99.90;;;;;;5053361;28;20478;-80
2021/04/19 07:41:51;;;;;;;106.20;51.33;;;5.90;99.90;;;;;;5053265;28;20025;-80
2021/04/19 07:44:39;;;;;;;119.03;60.45;;;6.00;99.90;;;;;;5054629;28;20055;-80
2021/04/19 07:47:35;;;;;;;111.82;56.08;;;6.00;99.90;;;;;;5063975;28;20378;-80
2021/04/19 07:50:12;;;;;;;114.80;57.55;;;6.10;99.90;;;;;;5070396;28;20036;-80
2021/04/19 07:53:01;;;;;;;93.72;42.58;;;6.20;99.90;;;;;;5053024;28;20371;-81
2021/04/19 07:55:52;;;;;;;93.18;44.10;;;6.30;99.90;;;;;;5053144;28;20432;-80
2021/04/19 07:58:21;;;;;;;90.85;43.05;;;6.30;99.90;;;;;;5054588;28;20025;-79
2021/04/19 08:00:46;;;;;;;104.38;48.38;;;6.40;99.90;;;;;;5053020;28;20474;-80
2021/04/19 08:03:15;;;;;;;113.32;55.58;;;6.50;99.90;;;;;;5052985;28;20043;-79
2021/04/19 08:05:42;;;;;;;110.95;49.65;;;6.60;99.90;;;;;;5063469;28;20474;-80
2021/04/19 08:08:09;;;;;;;104.00;45.80;;;6.70;99.90;;;;;;5062882;28;20021;-80
2021/04/19 08:10:38;;;;;;;100.32;48.30;;;6.70;99.90;;;;;;5062559;28;20017;-80
2021/04/19 08:13:10;;;;;;;108.80;49.75;;;6.80;99.90;;;;;;5059010;28;20036;-80
2021/04/19 08:15:37;;;;;;;102.47;51.15;;;6.80;99.90;;;;;;5068414;28;20482;-79
2021/04/19 08:18:06;;;;;;;116.38;59.47;;;6.80;99.90;;;;;;5071550;28;20488;-80
2021/04/19 08:20:32;;;;;;;114.60;57.80;;;6.90;99.90;;;;;;5067019;28;20039;-82
2021/04/19 08:23:10;;;;;;;116.38;56.05;;;7.00;99.90;;;;;;5051987;28;20021;-79
2021/04/19 08:25:40;;;;;;;99.57;49.05;;;7.00;99.90;;;;;;5051018;28;20063;-80
2021/04/19 08:28:13;;;;;;;104.60;46.58;;;7.10;99.90;;;;;;5049506;28;20025;-80
2021/04/19 08:30:41;;;;;;;95.43;49.63;;;7.10;99.90;;;;;;5052804;28;20029;-80
2021/04/19 08:33:08;;;;;;;96.32;48.60;;;7.20;99.90;;;;;;5051866;28;20025;-79
2021/04/19 08:35:34;;;;;;;90.20;45.55;;;7.30;99.90;;;;;;5050269;28;20020;-80
2021/04/19 08:38:03;;;;;;;104.93;52.28;;;7.30;99.90;;;;;;5050772;28;20033;-79
2021/04/19 08:40:30;;;;;;;97.03;51.17;;;7.40;99.90;;;;;;5049896;28;20528;-80
2021/04/19 08:42:57;;;;;;;83.03;41.67;;;7.40;99.90;;;;;;5050837;28;20027;-79
2021/04/19 08:45:24;;;;;;;75.35;38.13;;;7.40;99.90;;;;;;5049473;28;20025;-80
2021/04/19 08:47:51;;;;;;;84.07;39.33;;;7.40;99.90;;;;;;5051183;28;20383;-79
2021/04/19 08:50:21;;;;;;;87.22;44.88;;;7.50;99.90;;;;;;5050157;28;20526;-79
2021/04/19 08:52:48;;;;;;;87.07;41.15;;;7.40;99.90;;;;;;5062076;28;20024;-79
2021/04/19 08:55:14;;;;;;;79.55;35.03;;;7.40;99.90;;;;;;5070845;28;20024;-81
2021/04/19 08:57:49;;;;;;;77.40;38.10;;;7.40;99.90;;;;;;5071928;28;20039;-81
2021/04/19 09:00:24;;;;;;;71.70;32.85;;;7.30;99.90;;;;;;5071937;28;20095;-79
2021/04/19 09:02:50;;;;;;;85.22;39.60;;;7.30;99.90;;;;;;5071398;28;20054;-79
2021/04/19 09:05:19;;;;;;;80.95;36.00;;;7.20;99.90;;;;;;5070750;28;20017;-79
2021/04/19 09:07:49;;;;;;;90.72;40.58;;;7.20;99.90;;;;;;5072189;28;20017;-79
2021/04/19 09:10:21;;;;;;;81.18;37.38;;;7.20;99.90;;;;;;5072665;28;20564;-80
2021/04/19 09:12:47;;;;;;;81.38;35.97;;;7.30;99.90;;;;;;5072941;28;20482;-79
2021/04/19 09:15:24;;;;;;;75.78;35.38;;;7.40;99.90;;;;;;5071673;28;20025;-80
2021/04/19 09:18:06;;;;;;;78.05;36.97;;;7.50;99.90;;;;;;5071320;28;20040;-80
2021/04/19 09:20:53;;;;;;;89.50;38.97;;;7.70;99.90;;;;;;5054520;28;20555;-79
2021/04/19 09:23:26;;;;;;;82.63;39.35;;;7.80;99.90;;;;;;5071515;28;20032;-80
2021/04/19 09:25:53;;;;;;;82.60;36.10;;;7.90;99.90;;;;;;5071621;28;20025;-80
2021/04/19 09:28:40;;;;;;;75.28;35.35;;;8.10;99.90;;;;;;5071474;28;20116;-80
2021/04/19 09:31:07;;;;;;;89.43;38.20;;;8.30;99.90;;;;;;5071371;28;20020;-80
2021/04/19 09:33:34;;;;;;;82.50;41.30;;;8.50;99.90;;;;;;5071448;28;20139;-80
2021/04/19 09:36:00;;;;;;;76.38;35.58;;;8.60;99.90;;;;;;5072765;28;20509;-80
2021/04/19 09:38:37;;;;;;;73.47;35.92;;;8.60;99.90;;;;;;5071336;28;20025;-81
2021/04/19 09:41:05;;;;;;;73.47;36.55;;;8.60;99.90;;;;;;5071353;28;20128;-80
2021/04/19 09:43:41;;;;;;;68.25;35.42;;;8.70;99.90;;;;;;5071297;28;20017;-80
2021/04/19 09:46:16;;;;;;;88.47;42.85;;;8.80;99.90;;;;;;5071353;28;20039;-80
2021/04/19 09:48:45;;;;;;;77.05;39.58;;;8.80;99.90;;;;;;5072658;28;20438;-79
2021/04/19 09:51:17;;;;;;;84.03;40.28;;;8.90;99.90;;;;;;5071350;28;20029;-80
2021/04/19 09:54:02;;;;;;;85.97;38.95;;;8.90;99.90;;;;;;5071594;28;20013;-80
2021/04/19 09:56:35;;;;;;;79.15;36.70;;;8.90;99.90;;;;;;5066546;28;20036;-79
2021/04/19 09:59:02;;;;;;;71.20;34.20;;;9.00;99.90;;;;;;5069263;28;20059;-80
2021/04/19 10:01:29;;;;;;;74.35;35.10;;;9.10;99.90;;;;;;5071715;28;20032;-79
2021/04/19 10:03:56;;;;;;;69.40;35.20;;;9.20;99.90;;;;;;5074262;28;20057;-79
2021/04/19 10:06:58;;;;;;;74.28;37.45;;;9.30;99.90;;;;;;5075121;28;20470;-79
2021/04/19 10:09:26;;;;;;;77.65;34.83;;;9.40;99.90;;;;;;5014580;28;20029;-79
2021/04/19 10:12:02;;;;;;;73.60;36.15;;;9.50;99.90;;;;;;5060611;28;20040;-78
2021/04/19 10:14:34;;;;;;;80.97;40.47;;;9.70;99.90;;;;;;5074999;28;20085;-78
2021/04/19 10:17:11;;;;;;;69.82;36.53;;;9.80;99.90;;;;;;5076148;28;20067;-79
2021/04/19 10:19:37;;;;;;;68.63;33.58;;;9.90;99.90;;;;;;5074841;28;20111;-79
2021/04/19 10:22:08;;;;;;;61.80;30.10;;;9.80;99.90;;;;;;5074821;28;20170;-78
2021/04/19 10:24:47;;;;;;;53.75;28.45;;;9.70;99.90;;;;;;5074900;28;20024;-78
2021/04/19 10:27:13;;;;;;;51.70;30.00;;;9.90;99.90;;;;;;5076087;28;20016;-79
2021/04/19 10:29:39;;;;;;;54.85;28.48;;;10.10;99.90;;;;;;5075960;28;20150;-80
2021/04/19 10:32:04;;;;;;;46.13;26.92;;;10.30;99.90;;;;;;5074639;28;20035;-80
2021/04/19 10:34:32;;;;;;;47.28;26.25;;;10.20;99.90;;;;;;5075954;28;20029;-79
2021/04/19 10:37:01;;;;;;;51.83;30.25;;;10.10;99.90;;;;;;5075869;28;20032;-79
2021/04/19 10:39:30;;;;;;;51.00;29.92;;;10.20;99.90;;;;;;5074501;28;20081;-79
2021/04/19 10:41:59;;;;;;;50.47;27.65;;;10.30;99.90;;;;;;5075642;28;20044;-79
2021/04/19 10:44:35;;;;;;;45.60;27.17;;;10.60;99.90;;;;;;5075736;28;20486;-80
2021/04/19 10:47:02;;;;;;;44.47;25.02;;;10.90;99.90;;;;;;5075726;28;20023;-79
2021/04/19 10:49:29;;;;;;;52.55;30.08;;;11.20;99.90;;;;;;5074315;28;20074;-79
2021/04/19 10:51:57;;;;;;;48.72;28.00;;;11.30;99.90;;;;;;5074252;28;20556;-79
2021/04/19 10:54:32;;;;;;;54.25;30.25;;;11.00;99.90;;;;;;5075576;28;20048;-80
2021/04/19 10:56:59;;;;;;;55.60;30.48;;;10.90;99.90;;;;;;5075944;28;20028;-80
2021/04/19 10:59:25;;;;;;;44.75;24.95;;;10.90;99.90;;;;;;5075884;28;20032;-80
2021/04/19 11:02:08;;;;;;;37.70;22.05;;;11.00;99.90;;;;;;5074014;28;20028;-79
2021/04/19 11:04:35;;;;;;;41.05;23.48;;;11.30;94.90;;;;;;5074174;28;20024;-79
2021/04/19 11:07:31;;;;;;;36.55;22.88;;;11.40;98.30;;;;;;5074442;28;20056;-80
2021/04/19 11:10:15;;;;;;;34.50;23.02;;;11.60;90.80;;;;;;5074040;28;20048;-80
2021/04/19 11:12:53;;;;;;;34.38;20.95;;;11.90;91.70;;;;;;5075145;28;20028;-80
2021/04/19 11:15:21;;;;;;;32.53;19.67;;;12.30;93.50;;;;;;5074971;28;20028;-80
2021/04/19 11:17:47;;;;;;;24.83;16.85;;;12.30;83.80;;;;;;5075073;28;20023;-80
2021/04/19 11:20:31;;;;;;;23.13;14.45;;;12.30;80.20;;;;;;5073744;28;20040;-79
2021/04/19 11:23:00;;;;;;;24.58;15.65;;;12.10;75.00;;;;;;5073779;28;20422;-80
2021/04/19 11:25:30;;;;;;;29.50;18.08;;;12.00;80.30;;;;;;5075053;28;20020;-79
2021/04/19 11:28:18;;;;;;;30.48;18.45;;;11.90;82.70;;;;;;5074948;28;20017;-80
2021/04/19 11:30:45;;;;;;;38.67;23.05;;;11.70;87.40;;;;;;5074850;28;20020;-81
2021/04/19 11:33:26;;;;;;;50.95;27.73;;;11.60;93.30;;;;;;5073504;28;20086;-80
2021/04/19 11:36:04;;;;;;;31.48;20.17;;;11.50;91.50;;;;;;5074766;28;20032;-79
2021/04/19 11:38:30;;;;;;;37.40;22.95;;;11.50;90.10;;;;;;5074699;28;20024;-78
2021/04/19 11:41:12;;;;;;;37.63;22.20;;;11.30;93.40;;;;;;5073384;28;20032;-79
2021/04/19 11:43:50;;;;;;;41.42;25.75;;;11.30;94.30;;;;;;5073373;28;20024;-79
2021/04/19 11:46:17;;;;;;;45.90;25.10;;;11.30;94.10;;;;;;5073389;28;20032;-78
2021/04/19 11:48:46;;;;;;;37.22;23.25;;;11.20;98.80;;;;;;5073471;28;20020;-76
2021/04/19 11:51:14;;;;;;;44.95;27.52;;;11.20;99.20;;;;;;5068911;28;20035;-77
2021/04/19 11:53:44;;;;;;;42.65;26.27;;;11.30;99.90;;;;;;5068733;28;20032;-76
2021/04/19 11:56:11;;;;;;;41.53;25.45;;;11.30;98.40;;;;;;5067749;28;20109;-77
2021/04/19 11:58:41;;;;;;;37.05;24.48;;;11.40;98.70;;;;;;5070899;28;20028;-77
2021/04/19 12:01:07;;;;;;;25.95;18.88;;;11.60;97.80;;;;;;5071191;28;20037;-77
2021/04/19 12:03:33;;;;;;;28.60;18.80;;;11.70;85.70;;;;;;5070832;28;20024;-77
2021/04/19 12:06:01;;;;;;;36.38;20.75;;;11.70;89.90;;;;;;5070854;28;20395;-78
2021/04/19 12:08:26;;;;;;;25.02;17.13;;;11.80;88.10;;;;;;5071062;28;20041;-77
2021/04/19 12:10:52;;;;;;;27.00;17.27;;;11.90;85.60;;;;;;5072303;28;20021;-77
2021/04/19 12:13:17;;;;;;;27.98;17.02;;;12.00;85.40;;;;;;5071088;28;20086;-77
2021/04/19 12:15:44;;;;;;;23.45;15.90;;;12.10;83.60;;;;;;5070477;28;20039;-78
2021/04/19 12:18:11;;;;;;;30.98;16.17;;;12.20;80.20;;;;;;5070799;28;20489;-77
2021/04/19 12:20:37;;;;;;;23.50;15.50;;;12.30;82.20;;;;;;5072039;28;20039;-77
2021/04/19 12:23:03;;;;;;;21.58;13.35;;;12.40;79.20;;;;;;5070494;28;20021;-76
2021/04/19 12:25:29;;;;;;;13.50;10.15;;;12.40;75.70;;;;;;5061444;28;20033;-78
2021/04/19 12:27:55;;;;;;;16.83;11.13;;;12.30;72.10;;;;;;5060651;28;20062;-78
2021/04/19 12:30:21;;;;;;;15.10;11.35;;;12.20;72.00;;;;;;5063292;28;20017;-78
2021/04/19 12:32:47;;;;;;;14.93;10.65;;;12.20;73.40;;;;;;5059360;28;20028;-78
2021/04/19 12:35:14;;;;;;;16.77;10.90;;;12.10;73.80;;;;;;5061435;28;20047;-78
2021/04/19 12:37:39;;;;;;;13.88;8.48;;;12.10;74.70;;;;;;5064123;28;20173;-78
2021/04/19 12:40:05;;;;;;;10.55;7.20;;;12.10;72.60;;;;;;5062634;28;20046;-78
2021/04/19 12:42:31;;;;;;;10.52;7.82;;;12.10;71.40;;;;;;5058910;28;20029;-77
2021/04/19 12:44:56;;;;;;;10.95;7.38;;;12.20;69.60;;;;;;5061372;28;20573;-78
2021/04/19 12:47:22;;;;;;;12.43;7.80;;;12.30;69.70;;;;;;5060808;28;20021;-77